Time;durP1;ratioP1;P1;durP2;ratioP2;P2;SDS_P1;SDS_P2;PMS_P1;PMS_P2;Temp;Humidity;BMP_temperature;BMP_pressure;BME280_temperature;BME280_humidity;BME280_pressure;Samples;Min_cycle;Max_cycle;Signal;HPM_P1;HPM_P2
2023/08/21 00:01:31;;;;;;;0.90;0.55;;;17.50;99.90;;;;;;4943426;28;20072;-70
2023/08/21 00:03:56;;;;;;;0.00;0.00;;;17.40;99.90;;;;;;4959073;28;20040;-70
2023/08/21 00:06:22;;;;;;;1.85;0.45;;;17.40;99.90;;;;;;4957758;28;20048;-70
2023/08/21 00:08:48;;;;;;;24.73;1.50;;;17.40;99.90;;;;;;4973707;28;20047;-70
2023/08/21 00:11:13;;;;;;;5.60;0.85;;;17.40;99.90;;;;;;4949466;28;20040;-69
2023/08/21 00:13:39;;;;;;;0.00;0.00;;;17.40;99.90;;;;;;4975066;28;20423;-69
2023/08/21 00:16:05;;;;;;;0.00;0.00;;;17.40;99.90;;;;;;4942981;28;20046;-70
2023/08/21 00:18:30;;;;;;;0.00;0.00;;;17.40;99.90;;;;;;4959966;28;20053;-69
2023/08/21 00:20:56;;;;;;;0.10;0.10;;;17.40;99.90;;;;;;4957237;28;20079;-69
2023/08/21 00:23:21;;;;;;;0.20;0.20;;;17.30;99.90;;;;;;4929924;28;20117;-69
2023/08/21 00:25:47;;;;;;;0.20;0.20;;;17.40;99.90;;;;;;4966977;28;20059;-70
2023/08/21 00:28:14;;;;;;;0.00;0.00;;;17.40;99.90;;;;;;4948952;28;20084;-70
2023/08/21 00:30:39;;;;;;;4.80;1.45;;;17.40;99.90;;;;;;4922276;28;20044;-70
2023/08/21 00:33:05;;;;;;;0.10;0.10;;;17.40;99.90;;;;;;4960620;28;20507;-70
2023/08/21 00:35:31;;;;;;;0.00;0.00;;;17.30;99.90;;;;;;4975965;28;20189;-70
2023/08/21 00:37:56;;;;;;;0.10;0.10;;;17.30;99.90;;;;;;4926376;28;20037;-70
2023/08/21 00:40:22;;;;;;;0.00;0.00;;;17.20;99.90;;;;;;4981688;28;20053;-70
2023/08/21 00:42:47;;;;;;;0.00;0.00;;;17.20;99.90;;;;;;4952292;28;20071;-70
2023/08/21 00:45:13;;;;;;;0.00;0.00;;;17.20;99.90;;;;;;4956596;28;20367;-70
2023/08/21 00:47:39;;;;;;;0.75;0.70;;;17.20;99.90;;;;;;4933881;28;20059;-70
2023/08/21 00:50:07;;;;;;;1.20;1.10;;;17.20;99.90;;;;;;4915533;28;20416;-70
2023/08/21 00:52:35;;;;;;;0.00;0.00;;;17.20;99.90;;;;;;4963178;28;20123;-70
2023/08/21 00:55:01;;;;;;;0.00;0.00;;;17.20;99.90;;;;;;4930161;28;20050;-69
2023/08/21 00:57:27;;;;;;;0.43;0.43;;;17.20;99.90;;;;;;4962578;28;20038;-70
2023/08/21 00:59:53;;;;;;;0.00;0.00;;;17.10;99.90;;;;;;4931193;28;20058;-70
2023/08/21 01:02:19;;;;;;;0.00;0.00;;;17.10;99.90;;;;;;4941392;28;20130;-70
2023/08/21 01:04:45;;;;;;;0.25;0.25;;;17.10;99.90;;;;;;4976834;28;20077;-70
2023/08/21 01:07:11;;;;;;;0.45;0.25;;;17.00;99.90;;;;;;4940396;28;20541;-70
2023/08/21 01:09:48;;;;;;;0.00;0.00;;;17.00;99.90;;;;;;4938014;28;20121;-70
2023/08/21 01:12:37;;;;;;;0.00;0.00;;;17.00;99.90;;;;;;4931542;28;20071;-69
2023/08/21 01:15:06;;;;;;;0.00;0.00;;;17.00;99.90;;;;;;4933117;28;20065;-70
2023/08/21 01:17:34;;;;;;;0.85;0.17;;;17.00;99.90;;;;;;4940077;28;20052;-69
2023/08/21 01:20:00;;;;;;;0.10;0.10;;;17.00;99.90;;;;;;4918712;28;20038;-70
2023/08/21 01:22:27;;;;;;;0.00;0.00;;;17.00;99.90;;;;;;4943460;28;20603;-70
2023/08/21 01:24:54;;;;;;;0.00;0.00;;;17.00;99.90;;;;;;4934994;28;20489;-70
2023/08/21 01:27:21;;;;;;;2.28;2.08;;;17.00;99.90;;;;;;4918798;28;20476;-70
2023/08/21 01:29:47;;;;;;;0.47;0.20;;;16.90;99.90;;;;;;4937131;28;20084;-70
2023/08/21 01:32:40;;;;;;;0.03;0.03;;;16.90;99.90;;;;;;4940931;28;20136;-70
2023/08/21 01:35:07;;;;;;;0.45;0.32;;;16.80;99.90;;;;;;4904930;28;20132;-70
2023/08/21 01:37:33;;;;;;;0.00;0.00;;;16.80;99.90;;;;;;4911852;28;20056;-70
2023/08/21 01:39:59;;;;;;;0.00;0.00;;;16.90;99.90;;;;;;4936907;28;20416;-70
2023/08/21 01:42:25;;;;;;;0.13;0.13;;;16.90;99.90;;;;;;4937221;28;20045;-70
2023/08/21 01:44:50;;;;;;;0.00;0.00;;;16.90;99.90;;;;;;4927424;28;20037;-69
2023/08/21 01:47:17;;;;;;;1.38;0.93;;;16.90;99.90;;;;;;4978763;28;20042;-70
2023/08/21 01:49:43;;;;;;;0.00;0.00;;;16.90;99.90;;;;;;4912362;28;20053;-70
2023/08/21 01:52:08;;;;;;;0.00;0.00;;;16.90;99.90;;;;;;4922864;28;20127;-69
2023/08/21 01:54:35;;;;;;;4.13;0.65;;;16.90;99.90;;;;;;4958550;28;20477;-70
2023/08/21 01:57:00;;;;;;;0.15;0.15;;;16.80;99.90;;;;;;4902096;28;20151;-70
2023/08/21 01:59:26;;;;;;;0.00;0.00;;;16.80;99.90;;;;;;4956862;28;20121;-70
2023/08/21 02:01:52;;;;;;;0.00;0.00;;;16.80;99.90;;;;;;4933178;28;20385;-70
2023/08/21 02:04:17;;;;;;;0.30;0.30;;;16.80;99.90;;;;;;4936764;28;20404;-69
2023/08/21 02:06:44;;;;;;;0.43;0.40;;;16.80;99.90;;;;;;4946741;28;20459;-69
2023/08/21 02:09:10;;;;;;;0.00;0.00;;;16.80;99.90;;;;;;4932786;28;20098;-70
2023/08/21 02:11:35;;;;;;;0.00;0.00;;;16.80;99.90;;;;;;4924235;28;20056;-69
2023/08/21 02:14:02;;;;;;;0.10;0.10;;;16.70;99.90;;;;;;4959044;28;20903;-70
2023/08/21 02:16:27;;;;;;;0.85;0.60;;;16.70;99.90;;;;;;4929363;28;20496;-70
2023/08/21 02:18:53;;;;;;;0.00;0.00;;;16.70;99.90;;;;;;4925502;28;20037;-69
2023/08/21 02:21:19;;;;;;;0.00;0.00;;;16.70;99.90;;;;;;4968490;28;20726;-70
2023/08/21 02:23:44;;;;;;;0.45;0.28;;;16.70;99.90;;;;;;4938636;28;20447;-69
2023/08/21 02:26:10;;;;;;;0.00;0.00;;;16.70;99.90;;;;;;4924021;28;20049;-70
2023/08/21 02:28:35;;;;;;;0.22;0.22;;;16.70;99.90;;;;;;4950430;28;20044;-69
2023/08/21 02:31:01;;;;;;;0.20;0.20;;;16.70;99.90;;;;;;4925319;28;20541;-69
2023/08/21 02:33:26;;;;;;;0.00;0.00;;;16.70;99.90;;;;;;4953229;28;20052;-69
2023/08/21 02:35:52;;;;;;;0.00;0.00;;;16.60;99.90;;;;;;4930037;28;20049;-69
2023/08/21 02:38:18;;;;;;;0.30;0.30;;;16.60;99.90;;;;;;4935268;28;20046;-69
2023/08/21 02:40:43;;;;;;;0.28;0.28;;;16.60;99.90;;;;;;4940640;28;20151;-70
2023/08/21 02:43:10;;;;;;;2.35;0.20;;;16.60;99.90;;;;;;4929682;28;20080;-69
2023/08/21 02:45:35;;;;;;;0.03;0.03;;;16.60;99.90;;;;;;4965756;28;20072;-69
2023/08/21 02:48:01;;;;;;;0.00;0.00;;;16.60;99.90;;;;;;4957930;28;20530;-69
2023/08/21 02:50:26;;;;;;;6.70;0.47;;;16.50;99.90;;;;;;4927418;28;20050;-70
2023/08/21 02:52:52;;;;;;;0.10;0.10;;;16.60;99.90;;;;;;4950240;28;20495;-70
2023/08/21 02:55:18;;;;;;;0.00;0.00;;;16.50;99.90;;;;;;4928927;28;20098;-69
2023/08/21 02:57:44;;;;;;;0.00;0.00;;;16.50;99.90;;;;;;4914257;28;20488;-70
2023/08/21 03:00:11;;;;;;;0.00;0.00;;;16.50;99.90;;;;;;4939983;28;20051;-71
2023/08/21 03:02:37;;;;;;;0.20;0.20;;;16.50;99.90;;;;;;4913113;28;20086;-70
2023/08/21 03:05:04;;;;;;;0.00;0.00;;;16.50;99.90;;;;;;4935175;28;20095;-70
2023/08/21 03:07:29;;;;;;;0.10;0.10;;;16.50;99.90;;;;;;4918624;28;20668;-70
2023/08/21 03:09:55;;;;;;;0.15;0.15;;;16.50;99.90;;;;;;4932873;28;20040;-70
2023/08/21 03:12:20;;;;;;;0.00;0.00;;;16.40;99.90;;;;;;4910805;28;20138;-70
2023/08/21 03:14:46;;;;;;;0.20;0.20;;;16.40;99.90;;;;;;4910248;28;20166;-70
2023/08/21 03:17:12;;;;;;;0.00;0.00;;;16.40;99.90;;;;;;4917689;28;20134;-70
2023/08/21 03:19:38;;;;;;;0.52;0.52;;;16.40;99.90;;;;;;4952402;28;20584;-70
2023/08/21 03:22:03;;;;;;;0.00;0.00;;;16.30;99.90;;;;;;4922709;28;20090;-70
2023/08/21 03:24:29;;;;;;;0.65;0.63;;;16.30;99.90;;;;;;4955268;28;20086;-70
2023/08/21 03:26:54;;;;;;;0.00;0.00;;;16.30;99.90;;;;;;4936804;28;20061;-70
2023/08/21 03:29:20;;;;;;;0.00;0.00;;;16.30;99.90;;;;;;4913715;28;20492;-70
2023/08/21 03:31:56;;;;;;;0.57;0.57;;;16.30;99.90;;;;;;4930396;28;20055;-69
2023/08/21 03:34:22;;;;;;;0.65;0.65;;;16.30;99.90;;;;;;4915188;28;20049;-70
2023/08/21 03:36:47;;;;;;;1.20;0.65;;;16.30;99.90;;;;;;4924047;28;20408;-69
2023/08/21 03:39:13;;;;;;;2.42;1.25;;;16.30;99.90;;;;;;4984443;28;20050;-70
2023/08/21 03:41:39;;;;;;;0.00;0.00;;;16.30;99.90;;;;;;4939304;28;20040;-70
2023/08/21 03:44:04;;;;;;;0.57;0.57;;;16.20;99.90;;;;;;4939530;28;20048;-70
2023/08/21 03:46:30;;;;;;;0.08;0.08;;;16.10;99.90;;;;;;4937516;28;20041;-70
2023/08/21 03:48:56;;;;;;;0.00;0.00;;;16.10;99.90;;;;;;4950607;28;20110;-71
2023/08/21 03:51:22;;;;;;;0.00;0.00;;;16.10;99.90;;;;;;4935378;28;20046;-70
2023/08/21 03:53:47;;;;;;;0.00;0.00;;;16.00;99.90;;;;;;4923408;28;20480;-70
2023/08/21 03:56:13;;;;;;;0.08;0.08;;;16.00;99.90;;;;;;4964114;28;20158;-70
2023/08/21 03:58:38;;;;;;;2.25;0.52;;;16.00;99.90;;;;;;4920229;28;20044;-70
2023/08/21 04:01:04;;;;;;;0.00;0.00;;;16.10;99.90;;;;;;4937821;28;20037;-70
2023/08/21 04:03:29;;;;;;;0.10;0.10;;;16.10;99.90;;;;;;4909566;28;20041;-69
2023/08/21 04:05:56;;;;;;;0.00;0.00;;;16.10;99.90;;;;;;4952542;28;20063;-70
2023/08/21 04:08:25;;;;;;;0.10;0.10;;;16.10;99.90;;;;;;4919734;28;20044;-69
2023/08/21 04:10:52;;;;;;;0.00;0.00;;;16.20;99.90;;;;;;4959601;28;20051;-70
2023/08/21 04:13:18;;;;;;;0.00;0.00;;;16.10;99.90;;;;;;4926890;28;20045;-70
2023/08/21 04:15:49;;;;;;;0.10;0.10;;;16.10;99.90;;;;;;4914453;28;20160;-70
2023/08/21 04:18:14;;;;;;;0.10;0.10;;;16.10;99.90;;;;;;4928047;28;20036;-69
2023/08/21 04:20:40;;;;;;;0.00;0.00;;;16.00;99.90;;;;;;4965579;28;20048;-70
2023/08/21 04:23:05;;;;;;;0.05;0.05;;;16.00;99.90;;;;;;4983170;28;20059;-70
2023/08/21 04:25:31;;;;;;;0.15;0.15;;;16.00;99.90;;;;;;4928883;28;20052;-70
2023/08/21 04:27:57;;;;;;;0.22;0.17;;;16.00;99.90;;;;;;4979481;28;20588;-70
2023/08/21 04:30:22;;;;;;;2.17;1.08;;;16.00;99.90;;;;;;4949985;28;20079;-69
2023/08/21 04:32:48;;;;;;;0.55;0.55;;;15.90;99.90;;;;;;4927597;28;20059;-70
2023/08/21 04:35:14;;;;;;;0.00;0.00;;;15.90;99.90;;;;;;4927189;28;20507;-70
2023/08/21 04:37:44;;;;;;;0.00;0.00;;;15.90;99.90;;;;;;4926794;28;20044;-70
2023/08/21 04:40:11;;;;;;;0.00;0.00;;;15.90;99.90;;;;;;4939534;28;20128;-70
2023/08/21 04:42:36;;;;;;;1.95;0.20;;;15.90;99.90;;;;;;4959019;28;20490;-70
2023/08/21 04:45:02;;;;;;;0.00;0.00;;;16.00;99.90;;;;;;4951421;28;20095;-70
2023/08/21 04:47:28;;;;;;;0.00;0.00;;;16.00;99.90;;;;;;4906246;28;20472;-70
2023/08/21 04:49:55;;;;;;;0.00;0.00;;;16.00;99.90;;;;;;4921039;28;20086;-70
2023/08/21 04:52:22;;;;;;;0.17;0.17;;;16.00;99.90;;;;;;4918691;28;20048;-70
2023/08/21 04:54:48;;;;;;;0.10;0.10;;;16.00;99.90;;;;;;4916572;28;20101;-70
2023/08/21 04:57:14;;;;;;;0.30;0.30;;;16.00;99.90;;;;;;4950960;28;20060;-69
2023/08/21 04:59:40;;;;;;;0.00;0.00;;;16.00;99.90;;;;;;4934262;28;20088;-70
2023/08/21 05:02:06;;;;;;;0.20;0.20;;;16.00;99.90;;;;;;4971516;28;20042;-70
2023/08/21 05:04:32;;;;;;;0.00;0.00;;;16.00;99.90;;;;;;4928601;28;20489;-70
2023/08/21 05:06:58;;;;;;;0.00;0.00;;;16.10;99.90;;;;;;4925262;28;21020;-70
2023/08/21 05:09:23;;;;;;;0.00;0.00;;;16.10;99.90;;;;;;4961438;28;20071;-70
2023/08/21 05:11:49;;;;;;;0.00;0.00;;;16.10;99.90;;;;;;4950260;28;20554;-70
2023/08/21 05:14:14;;;;;;;0.20;0.20;;;16.10;99.90;;;;;;4913514;28;20048;-70
2023/08/21 05:16:40;;;;;;;0.00;0.00;;;16.10;99.90;;;;;;4981075;28;20139;-70
2023/08/21 05:19:06;;;;;;;0.10;0.10;;;16.20;99.90;;;;;;4907552;28;20044;-69
2023/08/21 05:21:31;;;;;;;3.53;0.85;;;16.10;99.90;;;;;;4957792;28;20081;-70
2023/08/21 05:23:57;;;;;;;0.00;0.00;;;16.20;99.90;;;;;;4953788;28;20567;-69
2023/08/21 05:26:23;;;;;;;0.00;0.00;;;16.20;99.90;;;;;;4916687;28;20095;-70
2023/08/21 05:28:48;;;;;;;0.10;0.10;;;16.30;99.90;;;;;;4928026;28;20076;-70
2023/08/21 05:31:14;;;;;;;0.00;0.00;;;16.30;99.90;;;;;;4909411;28;20097;-70
2023/08/21 05:33:39;;;;;;;0.20;0.20;;;16.30;99.90;;;;;;4906935;28;20056;-70
2023/08/21 05:36:05;;;;;;;0.20;0.20;;;16.30;99.90;;;;;;4951482;28;20075;-70
2023/08/21 05:38:32;;;;;;;1.17;1.08;;;16.40;99.90;;;;;;4952451;28;20080;-70
2023/08/21 05:40:58;;;;;;;0.00;0.00;;;16.40;99.90;;;;;;4936803;28;20049;-70
2023/08/21 05:43:24;;;;;;;0.10;0.10;;;16.50;99.90;;;;;;4963601;28;20061;-70
2023/08/21 05:45:49;;;;;;;0.00;0.00;;;16.50;99.90;;;;;;4963217;28;20062;-70
2023/08/21 05:48:16;;;;;;;0.00;0.00;;;16.50;99.90;;;;;;4947264;28;20033;-70
2023/08/21 05:50:42;;;;;;;0.00;0.00;;;16.60;99.90;;;;;;4909705;28;20052;-70
2023/08/21 05:53:08;;;;;;;0.08;0.08;;;16.60;99.90;;;;;;4961120;28;20495;-70
2023/08/21 05:55:37;;;;;;;0.00;0.00;;;16.70;99.90;;;;;;4925639;28;20095;-69
2023/08/21 05:58:03;;;;;;;0.00;0.00;;;16.80;99.90;;;;;;4913348;28;20087;-70
2023/08/21 06:00:28;;;;;;;0.03;0.03;;;16.90;99.90;;;;;;4941947;28;20044;-70
2023/08/21 06:02:54;;;;;;;0.00;0.00;;;16.90;99.90;;;;;;4950441;28;20500;-69
2023/08/21 06:05:19;;;;;;;0.10;0.10;;;17.00;99.90;;;;;;4952517;28;20052;-69
2023/08/21 06:07:45;;;;;;;0.00;0.00;;;17.10;99.90;;;;;;4939675;28;20034;-69
2023/08/21 06:10:12;;;;;;;0.00;0.00;;;17.10;99.90;;;;;;4915690;28;20044;-70
2023/08/21 06:12:39;;;;;;;0.00;0.00;;;17.20;99.90;;;;;;4956189;28;20045;-69
2023/08/21 06:15:07;;;;;;;4.57;2.10;;;17.30;99.90;;;;;;4953950;28;20357;-69
2023/08/21 06:17:33;;;;;;;0.22;0.15;;;17.30;99.90;;;;;;4971568;28;20049;-69
2023/08/21 06:19:59;;;;;;;0.00;0.00;;;17.40;99.90;;;;;;4925550;28;20049;-70
2023/08/21 06:22:25;;;;;;;0.00;0.00;;;17.40;99.90;;;;;;4918498;28;20070;-70
2023/08/21 06:24:50;;;;;;;0.00;0.00;;;17.50;99.90;;;;;;4952515;28;20042;-69
2023/08/21 06:27:16;;;;;;;0.00;0.00;;;17.50;99.90;;;;;;4947160;28;20136;-70
2023/08/21 06:29:41;;;;;;;0.00;0.00;;;17.50;99.90;;;;;;4957652;28;20070;-69
2023/08/21 06:32:07;;;;;;;0.10;0.10;;;17.60;99.90;;;;;;4965303;28;20680;-69
2023/08/21 06:34:33;;;;;;;0.77;0.20;;;17.60;99.90;;;;;;4905441;28;20048;-69
2023/08/21 06:36:58;;;;;;;0.10;0.10;;;17.60;99.90;;;;;;4926248;28;20434;-69
2023/08/21 06:39:25;;;;;;;0.00;0.00;;;17.70;99.90;;;;;;4918381;28;20506;-70
2023/08/21 06:41:51;;;;;;;0.00;0.00;;;17.80;99.90;;;;;;4955130;28;20468;-70
2023/08/21 06:44:17;;;;;;;0.00;0.00;;;17.80;99.90;;;;;;4941868;28;20046;-70
2023/08/21 06:46:43;;;;;;;0.00;0.00;;;17.90;99.90;;;;;;4919298;28;20064;-71
2023/08/21 06:49:08;;;;;;;0.00;0.00;;;18.00;99.90;;;;;;4922414;28;20059;-70
2023/08/21 06:51:34;;;;;;;0.00;0.00;;;18.00;99.90;;;;;;4953799;28;20379;-70
2023/08/21 06:54:00;;;;;;;0.38;0.38;;;18.00;99.90;;;;;;4909582;28;20044;-70
2023/08/21 06:56:25;;;;;;;0.25;0.25;;;18.10;99.90;;;;;;4917521;28;20052;-70
2023/08/21 06:58:51;;;;;;;0.10;0.10;;;18.10;99.90;;;;;;4939337;28;20044;-70
2023/08/21 07:01:17;;;;;;;0.15;0.08;;;18.20;99.90;;;;;;4961043;28;20048;-70
2023/08/21 07:03:43;;;;;;;0.57;0.38;;;18.30;99.90;;;;;;4929280;28;20050;-70
2023/08/21 07:06:08;;;;;;;0.03;0.03;;;18.30;99.90;;;;;;4949655;28;20033;-70
2023/08/21 07:08:34;;;;;;;0.00;0.00;;;18.40;99.90;;;;;;4983559;28;20098;-70
2023/08/21 07:11:04;;;;;;;0.93;0.82;;;18.40;99.90;;;;;;4951594;28;20079;-70
2023/08/21 07:13:30;;;;;;;0.95;0.88;;;18.40;99.90;;;;;;4923255;28;20059;-70
2023/08/21 07:15:55;;;;;;;0.20;0.20;;;18.50;99.90;;;;;;4947190;28;20050;-70
2023/08/21 07:18:21;;;;;;;0.00;0.00;;;18.60;99.90;;;;;;4956705;28;20046;-70
2023/08/21 07:20:46;;;;;;;0.00;0.00;;;18.60;99.90;;;;;;4944791;28;20129;-70
2023/08/21 07:23:12;;;;;;;0.10;0.10;;;18.70;99.90;;;;;;4940937;28;20045;-71
2023/08/21 07:25:38;;;;;;;0.00;0.00;;;18.70;99.90;;;;;;4957954;28;20097;-70
2023/08/21 07:28:04;;;;;;;0.00;0.00;;;18.80;99.90;;;;;;4947872;28;20133;-70
2023/08/21 07:30:29;;;;;;;1.00;0.65;;;18.80;99.90;;;;;;4928984;28;20045;-71
2023/08/21 07:32:55;;;;;;;0.05;0.05;;;18.90;99.90;;;;;;4923067;28;20193;-70
2023/08/21 07:35:21;;;;;;;0.00;0.00;;;18.90;99.90;;;;;;4955810;28;20993;-70
2023/08/21 07:37:46;;;;;;;0.00;0.00;;;18.90;99.90;;;;;;4969797;28;20050;-71
2023/08/21 07:40:12;;;;;;;0.00;0.00;;;19.00;99.90;;;;;;4929367;28;20049;-70
2023/08/21 07:42:38;;;;;;;0.95;0.68;;;19.00;99.90;;;;;;4950850;28;20073;-70
2023/08/21 07:45:04;;;;;;;0.00;0.00;;;19.10;99.90;;;;;;4963648;28;20044;-70
2023/08/21 07:47:30;;;;;;;0.00;0.00;;;19.10;99.90;;;;;;4939859;28;20119;-71
2023/08/21 07:49:57;;;;;;;2.20;0.75;;;19.20;99.90;;;;;;4918226;28;20472;-70
2023/08/21 07:52:23;;;;;;;0.00;0.00;;;19.30;99.90;;;;;;4931363;28;20135;-71
2023/08/21 07:54:55;;;;;;;0.45;0.10;;;19.40;99.90;;;;;;4982391;28;20081;-71
2023/08/21 07:57:20;;;;;;;0.35;0.35;;;19.40;99.90;;;;;;4915920;28;21431;-71
2023/08/21 07:59:46;;;;;;;0.10;0.10;;;19.50;99.90;;;;;;4939415;28;20030;-71
2023/08/21 08:02:12;;;;;;;1.00;0.57;;;19.50;99.90;;;;;;4962082;28;20050;-71
2023/08/21 08:04:38;;;;;;;0.00;0.00;;;19.60;99.90;;;;;;4932636;28;20151;-71
2023/08/21 08:07:04;;;;;;;0.68;0.68;;;19.70;99.90;;;;;;4942612;28;20041;-71
2023/08/21 08:09:30;;;;;;;0.00;0.00;;;19.70;99.90;;;;;;4930351;28;20071;-70
2023/08/21 08:11:56;;;;;;;0.88;0.63;;;19.80;99.90;;;;;;4960559;28;20071;-71
2023/08/21 08:14:21;;;;;;;0.00;0.00;;;19.90;99.90;;;;;;4953712;28;20048;-71
2023/08/21 08:16:47;;;;;;;0.10;0.10;;;20.00;99.90;;;;;;4974398;28;20040;-71
2023/08/21 08:19:13;;;;;;;0.63;0.63;;;20.00;99.90;;;;;;4909789;28;20543;-70
2023/08/21 08:21:38;;;;;;;0.00;0.00;;;20.10;99.90;;;;;;4932534;28;20048;-70
2023/08/21 08:24:04;;;;;;;0.00;0.00;;;20.20;99.90;;;;;;4943502;28;20166;-69
2023/08/21 08:26:30;;;;;;;0.35;0.35;;;20.20;99.90;;;;;;4911047;28;20080;-68
2023/08/21 08:28:55;;;;;;;0.00;0.00;;;20.30;99.90;;;;;;4966074;28;20042;-69
2023/08/21 08:31:23;;;;;;;0.20;0.20;;;20.30;99.90;;;;;;4932318;28;20036;-69
2023/08/21 08:33:49;;;;;;;0.60;0.60;;;20.40;99.90;;;;;;4923045;28;20067;-70
2023/08/21 08:36:14;;;;;;;0.52;0.52;;;20.40;99.90;;;;;;4971843;28;20420;-69
2023/08/21 08:38:40;;;;;;;0.00;0.00;;;20.50;99.90;;;;;;4928231;28;20052;-69
2023/08/21 08:41:11;;;;;;;1.08;0.50;;;20.60;99.90;;;;;;4965572;28;20998;-69
2023/08/21 08:43:40;;;;;;;0.00;0.00;;;20.60;99.90;;;;;;4936017;28;20079;-69
2023/08/21 08:46:08;;;;;;;0.45;0.20;;;20.60;99.90;;;;;;4925515;28;20047;-69
2023/08/21 08:48:35;;;;;;;0.10;0.10;;;20.60;99.90;;;;;;4947816;28;20047;-70
2023/08/21 08:51:03;;;;;;;0.68;0.50;;;20.70;99.90;;;;;;4925279;28;20487;-70
2023/08/21 08:53:30;;;;;;;1.30;0.30;;;20.80;99.90;;;;;;4925202;28;20060;-70
2023/08/21 08:55:57;;;;;;;0.38;0.38;;;20.80;99.90;;;;;;4917153;28;20047;-70
2023/08/21 08:58:23;;;;;;;0.08;0.08;;;20.90;99.90;;;;;;4917182;28;20056;-70
2023/08/21 09:00:49;;;;;;;6.45;0.47;;;21.00;99.90;;;;;;4916664;28;20044;-70
2023/08/21 09:03:15;;;;;;;1.65;0.75;;;21.00;99.90;;;;;;4954464;28;20046;-71
2023/08/21 09:05:41;;;;;;;0.10;0.10;;;21.10;99.90;;;;;;4945698;28;20076;-70
2023/08/21 09:08:11;;;;;;;0.17;0.15;;;21.20;99.90;;;;;;4900227;28;20040;-70
2023/08/21 09:10:42;;;;;;;0.10;0.10;;;21.30;99.90;;;;;;4972082;28;20041;-70
2023/08/21 09:13:19;;;;;;;1.05;0.57;;;21.70;99.90;;;;;;4969708;28;20042;-70
2023/08/21 09:15:52;;;;;;;0.00;0.00;;;22.30;99.90;;;;;;4928369;28;20481;-70
2023/08/21 09:18:18;;;;;;;0.00;0.00;;;22.80;99.90;;;;;;4954563;28;20069;-70
2023/08/21 09:20:44;;;;;;;0.10;0.10;;;23.30;99.90;;;;;;4950581;28;20501;-71
2023/08/21 09:23:14;;;;;;;0.00;0.00;;;23.80;99.90;;;;;;4925188;28;20051;-71
2023/08/21 09:25:40;;;;;;;0.52;0.52;;;24.40;99.90;;;;;;4934382;28;20492;-71
2023/08/21 09:28:08;;;;;;;0.00;0.00;;;24.80;99.90;;;;;;4975359;28;20048;-70
2023/08/21 09:31:00;;;;;;;0.00;0.00;;;25.10;99.90;;;;;;4911145;28;20106;-70
2023/08/21 09:33:26;;;;;;;0.20;0.10;;;25.40;99.90;;;;;;4951789;28;20106;-69
2023/08/21 09:35:52;;;;;;;0.10;0.10;;;25.60;99.90;;;;;;4980861;28;20449;-71
2023/08/21 09:38:21;;;;;;;0.00;0.00;;;25.80;99.90;;;;;;4903371;28;20044;-71
2023/08/21 09:40:56;;;;;;;0.00;0.00;;;26.00;99.90;;;;;;4969708;28;20508;-71
2023/08/21 09:43:23;;;;;;;0.00;0.00;;;26.00;99.90;;;;;;4962012;28;20077;-70
2023/08/21 09:45:52;;;;;;;1.80;0.25;;;26.20;99.90;;;;;;4927715;28;20117;-72
2023/08/21 09:48:19;;;;;;;0.08;0.08;;;26.30;99.90;;;;;;4902346;28;20049;-70
2023/08/21 09:50:46;;;;;;;0.00;0.00;;;26.20;99.90;;;;;;4902642;28;20603;-69
2023/08/21 09:53:12;;;;;;;4.40;1.13;;;26.20;99.90;;;;;;4912385;28;20106;-70
2023/08/21 09:55:39;;;;;;;0.00;0.00;;;26.30;99.90;;;;;;4952400;28;20049;-70
2023/08/21 09:58:06;;;;;;;0.00;0.00;;;26.20;99.90;;;;;;4991253;28;20104;-70
2023/08/21 10:00:34;;;;;;;0.10;0.10;;;26.20;99.90;;;;;;4923213;28;20491;-70
2023/08/21 10:03:07;;;;;;;0.00;0.00;;;26.30;99.90;;;;;;4952828;28;20400;-70
2023/08/21 10:05:34;;;;;;;0.00;0.00;;;26.40;99.90;;;;;;4948295;28;20035;-70
2023/08/21 10:08:04;;;;;;;0.00;0.00;;;26.70;99.90;;;;;;4945735;28;20060;-70
2023/08/21 10:10:38;;;;;;;0.00;0.00;;;26.80;99.90;;;;;;4961035;28;20059;-70
2023/08/21 10:13:05;;;;;;;0.10;0.10;;;26.80;99.90;;;;;;4967374;28;20049;-70
2023/08/21 10:15:36;;;;;;;0.05;0.05;;;27.00;99.90;;;;;;4931603;28;20415;-69
2023/08/21 10:18:20;;;;;;;0.00;0.00;;;26.90;99.90;;;;;;4944727;28;20045;-69
2023/08/21 10:20:46;;;;;;;0.00;0.00;;;26.90;99.90;;;;;;4938598;28;20076;-69
2023/08/21 10:23:24;;;;;;;0.00;0.00;;;26.90;99.90;;;;;;4933540;28;20050;-69
2023/08/21 10:25:58;;;;;;;0.00;0.00;;;26.70;99.90;;;;;;4919905;28;20069;-69
2023/08/21 10:28:23;;;;;;;0.20;0.20;;;26.70;99.90;;;;;;4928097;28;20491;-68
2023/08/21 10:30:49;;;;;;;0.00;0.00;;;26.50;99.90;;;;;;4933813;28;20055;-69
2023/08/21 10:33:15;;;;;;;0.00;0.00;;;26.50;99.90;;;;;;4916791;28;20419;-69
2023/08/21 10:35:40;;;;;;;0.00;0.00;;;26.30;99.90;;;;;;4929646;28;20048;-69
2023/08/21 10:38:17;;;;;;;0.10;0.10;;;26.30;99.90;;;;;;4923949;28;20124;-69
2023/08/21 10:41:12;;;;;;;0.10;0.10;;;26.00;99.90;;;;;;4911894;28;20392;-68
2023/08/21 10:43:46;;;;;;;0.20;0.20;;;25.80;99.90;;;;;;4952145;28;20095;-68
2023/08/21 10:46:12;;;;;;;0.45;0.45;;;26.00;99.90;;;;;;4931541;28;20077;-68
2023/08/21 10:48:39;;;;;;;0.00;0.00;;;25.90;99.90;;;;;;4937774;28;20057;-68
2023/08/21 10:51:09;;;;;;;0.00;0.00;;;26.00;99.90;;;;;;4914187;28;20048;-68
2023/08/21 10:53:35;;;;;;;1.15;0.52;;;26.20;99.90;;;;;;4946251;28;20048;-68
2023/08/21 10:56:02;;;;;;;0.10;0.10;;;26.20;99.90;;;;;;4944707;28;20447;-68
2023/08/21 10:58:28;;;;;;;2.92;1.02;;;26.20;99.90;;;;;;4931238;28;20106;-69
2023/08/21 11:01:00;;;;;;;0.00;0.00;;;25.70;99.90;;;;;;4950924;28;20033;-69
2023/08/21 11:03:26;;;;;;;0.00;0.00;;;25.40;99.90;;;;;;4911795;28;20050;-68
2023/08/21 11:06:09;;;;;;;0.00;0.00;;;25.00;99.90;;;;;;4937234;28;22351;-69
2023/08/21 11:08:36;;;;;;;0.10;0.10;;;24.90;99.90;;;;;;4946340;28;20048;-69
2023/08/21 11:11:03;;;;;;;2.20;0.35;;;24.90;99.90;;;;;;4981562;28;20050;-69
2023/08/21 11:13:29;;;;;;;0.00;0.00;;;25.30;99.90;;;;;;4930458;28;20357;-69
2023/08/21 11:16:02;;;;;;;0.00;0.00;;;25.50;99.90;;;;;;4936012;28;20089;-70
2023/08/21 11:18:38;;;;;;;0.00;0.00;;;25.90;99.90;;;;;;4923063;28;20497;-69
2023/08/21 11:21:11;;;;;;;0.00;0.00;;;26.00;99.90;;;;;;4939350;28;20062;-69
2023/08/21 11:23:42;;;;;;;0.20;0.20;;;25.50;99.90;;;;;;4932203;28;20056;-69
2023/08/21 11:26:11;;;;;;;0.57;0.57;;;25.60;99.90;;;;;;4918988;28;20048;-69
2023/08/21 11:28:38;;;;;;;0.90;0.50;;;25.20;99.90;;;;;;4937086;28;20098;-70
2023/08/21 11:31:05;;;;;;;0.00;0.00;;;25.20;99.90;;;;;;4922344;28;20037;-70
2023/08/21 11:33:31;;;;;;;0.85;0.65;;;25.80;99.90;;;;;;4905255;28;20052;-70
2023/08/21 11:35:58;;;;;;;0.00;0.00;;;26.10;99.90;;;;;;4964326;28;20445;-70
2023/08/21 11:38:26;;;;;;;0.00;0.00;;;26.30;99.90;;;;;;4943959;28;20038;-70
2023/08/21 11:40:56;;;;;;;0.00;0.00;;;26.60;99.90;;;;;;4978425;28;20053;-70
2023/08/21 11:43:23;;;;;;;12.07;0.30;;;26.20;99.90;;;;;;4927354;28;20394;-70
2023/08/21 11:45:48;;;;;;;0.00;0.00;;;26.10;99.90;;;;;;4936578;28;20036;-70
2023/08/21 11:48:14;;;;;;;0.00;0.00;;;25.70;99.90;;;;;;4939721;28;20048;-70
2023/08/21 11:50:40;;;;;;;15.88;0.45;;;25.50;99.90;;;;;;4906665;28;20079;-69
2023/08/21 11:53:06;;;;;;;0.00;0.00;;;26.00;99.90;;;;;;4912218;28;20047;-69
2023/08/21 11:55:31;;;;;;;0.00;0.00;;;26.20;99.90;;;;;;4929830;28;20048;-70
2023/08/21 11:57:57;;;;;;;0.00;0.00;;;26.60;99.90;;;;;;4911284;28;20504;-69
2023/08/21 12:00:30;;;;;;;0.00;0.00;;;27.00;99.90;;;;;;4915870;28;20045;-69
2023/08/21 12:02:58;;;;;;;0.08;0.08;;;27.00;99.90;;;;;;4918995;28;20040;-68
2023/08/21 12:05:24;;;;;;;0.10;0.10;;;27.10;99.90;;;;;;4963761;28;20075;-68
2023/08/21 12:07:50;;;;;;;0.65;0.45;;;27.30;99.90;;;;;;4911262;28;20037;-68
2023/08/21 12:10:26;;;;;;;0.65;0.43;;;26.70;99.90;;;;;;4931910;28;20048;-69
2023/08/21 12:12:52;;;;;;;0.00;0.00;;;26.10;99.90;;;;;;4930945;28;20053;-68
2023/08/21 12:15:19;;;;;;;0.00;0.00;;;26.50;99.90;;;;;;4916757;28;20418;-69
2023/08/21 12:17:44;;;;;;;0.47;0.38;;;26.40;99.90;;;;;;4928036;28;20049;-69
2023/08/21 12:20:10;;;;;;;0.22;0.22;;;26.30;99.90;;;;;;4913802;28;20058;-69
2023/08/21 12:22:40;;;;;;;2.40;1.02;;;26.80;99.90;;;;;;4949601;28;20059;-69
2023/08/21 12:25:07;;;;;;;0.20;0.20;;;27.30;99.90;;;;;;4935739;28;20100;-69
2023/08/21 12:27:32;;;;;;;0.10;0.10;;;27.20;99.90;;;;;;4939876;28;20052;-69
2023/08/21 12:29:58;;;;;;;0.00;0.00;;;27.40;99.90;;;;;;4945498;28;20059;-69
2023/08/21 12:32:23;;;;;;;0.00;0.00;;;27.40;99.90;;;;;;4917583;28;20146;-69
2023/08/21 12:34:49;;;;;;;0.00;0.00;;;27.70;99.90;;;;;;4961467;28;20119;-69
2023/08/21 12:37:15;;;;;;;0.70;0.65;;;27.90;99.90;;;;;;4932824;28;20052;-69
2023/08/21 12:39:40;;;;;;;0.03;0.03;;;28.00;99.90;;;;;;4919637;28;20043;-68
2023/08/21 12:42:07;;;;;;;0.00;0.00;;;28.20;99.90;;;;;;4972400;28;20048;-69
2023/08/21 12:44:33;;;;;;;0.10;0.10;;;27.80;99.90;;;;;;4957413;28;20567;-69